OIAG  Aghajari  Airport

Aghajari,, Iran

Add Bookmark
ICAO OIAG
Type Airport
Status Operational
Latitude
30° 44' 39" N
30.744400
Longitude
49° 40' 37" E
49.677200
Local (GMT +4.5 ) UTC
May 26, 2016 11:20 am May 26, 2016 06:50
Sunrise-Sunset Local UTC
Begin Civil Twilight 05:42 am 01:12
Sunrise 06:09 am 01:39
Sunset 08:07 pm 15:37
End Civil Twilight 08:34 pm 16:04
VFR
VFR
MVFR
MVFR
IFR
IFR
LIFR
LIFR
Unknown
Unavailable

Current Weather

METAR Observed VFR
OIAG 260500Z 31006KT CAVOK 30/10 Q1006 Thu, May 26, 2016 @ 05:00 UTC
(1 Hour, 50 Minutes ago)
Visual Flight Rules
Wind Visibility Conditions
310° at 6 knots (11 kph) 10 km or more
  • No significant weather
Temperatures Readings Precipitation
Current Temp
30°C
86°F
Dewpoint
10°C
50°F
Humidity 29%
Altimeter 29.7" Hg
Sea Level Pressure 1,006 mb
Field Elevation
29 m
95 ft
None Recorded

Additional weather within a 92.6km radius of OIAG

Map ICAO Location
OIAM 54.4km W/SW (248°)
VFR
VFR
MVFR
MVFR
IFR
IFR
LIFR
LIFR
Unknown
Unavailable
-
-

CheckWX.com is intended as a tool to help pilots better visualize weather data. It is not intended as a substitute for an official weather briefing obtained from a Flight Service Station. CheckWX.com does not meet the FAA requirements for an official pre-flight weather briefing. Therefore, it's important that pilots still call and obtain an official FSS pre-flight weather briefing.

© 2007-2016 CheckWX.com
06:50:50 UTC